createdAt,value
2023-04-18T00:01:50.464Z,13.13
2023-04-18T00:04:19.572Z,12.33
2023-04-18T00:06:50.057Z,12.43
2023-04-18T00:09:20.927Z,12.00
2023-04-18T00:11:49.168Z,12.03
2023-04-18T00:14:17.236Z,11.60
2023-04-18T00:16:46.273Z,12.70
2023-04-18T00:19:16.503Z,12.60
2023-04-18T00:21:45.074Z,11.87
2023-04-18T00:24:14.780Z,11.13
2023-04-18T00:26:42.917Z,12.90
2023-04-18T00:29:11.007Z,12.57
2023-04-18T00:31:39.147Z,12.27
2023-04-18T00:34:07.779Z,11.40
2023-04-18T00:36:35.739Z,11.27
2023-04-18T00:39:03.749Z,11.03
2023-04-18T00:41:33.398Z,13.13
2023-04-18T00:44:01.579Z,12.07
2023-04-18T00:46:29.881Z,9.73
2023-04-18T00:48:58.147Z,9.90
2023-04-18T00:51:28.047Z,12.90
2023-04-18T00:53:56.478Z,10.33
2023-04-18T00:56:26.116Z,12.80
2023-04-18T00:58:55.692Z,12.23
2023-04-18T01:01:24.110Z,12.17
2023-04-18T01:03:52.429Z,12.73
2023-04-18T01:06:20.868Z,11.53
2023-04-18T01:08:49.574Z,11.70
2023-04-18T01:11:19.064Z,11.83
2023-04-18T01:14:02.107Z,12.90
2023-04-18T01:16:33.851Z,12.60
2023-04-18T01:19:02.350Z,11.27
2023-04-18T01:21:31.439Z,11.40
2023-04-18T01:24:01.842Z,12.13
2023-04-18T01:26:31.746Z,11.67
2023-04-18T01:28:59.619Z,12.63
2023-04-18T01:31:27.891Z,11.70
2023-04-18T01:33:56.093Z,10.33
2023-04-18T01:36:24.407Z,12.47
2023-04-18T01:38:52.556Z,12.13
2023-04-18T01:41:20.659Z,11.20
2023-04-18T01:43:51.277Z,13.27
2023-04-18T01:46:19.660Z,13.30
2023-04-18T01:48:50.076Z,12.23
2023-04-18T01:51:21.769Z,12.73
2023-04-18T01:53:50.137Z,12.07
2023-04-18T01:56:18.376Z,12.73
2023-04-18T01:58:46.672Z,12.93
2023-04-18T02:01:16.261Z,13.03
2023-04-18T02:03:45.037Z,12.90
2023-04-18T02:06:14.663Z,12.87
2023-04-18T02:08:42.567Z,12.53
2023-04-18T02:11:10.468Z,13.00
2023-04-18T02:13:38.457Z,12.33
2023-04-18T02:16:13.739Z,11.90
2023-04-18T02:18:52.926Z,11.13
2023-04-18T02:21:22.059Z,11.40
2023-04-18T02:23:53.569Z,12.03
2023-04-18T02:26:23.165Z,11.80
2023-04-18T02:28:51.558Z,12.03
2023-04-18T02:31:19.662Z,11.63
2023-04-18T02:33:48.137Z,11.30
2023-04-18T02:36:18.652Z,11.80
2023-04-18T02:38:46.702Z,11.20
2023-04-18T02:41:17.407Z,11.33
2023-04-18T02:43:45.978Z,11.20
2023-04-18T02:46:16.642Z,11.67
2023-04-18T02:48:47.942Z,10.50
2023-04-18T02:51:20.070Z,11.00
2023-04-18T02:53:54.861Z,11.93
2023-04-18T02:56:23.863Z,10.77
2023-04-18T02:59:24.356Z,11.00
2023-04-18T03:02:24.716Z,11.30
2023-04-18T03:04:57.585Z,10.87
2023-04-18T03:07:27.074Z,11.77
2023-04-18T03:09:55.208Z,11.33
2023-04-18T03:12:27.890Z,11.47
2023-04-18T03:14:56.346Z,11.10
2023-04-18T03:17:24.685Z,11.93
2023-04-18T03:19:53.684Z,11.23
2023-04-18T03:22:22.146Z,10.33
2023-04-18T03:25:02.178Z,10.93
2023-04-18T03:27:43.322Z,10.77
2023-04-18T03:30:15.304Z,11.80
2023-04-18T03:32:46.629Z,10.73
2023-04-18T03:35:14.811Z,11.80
2023-04-18T03:37:43.152Z,11.83
2023-04-18T03:40:13.667Z,11.17
2023-04-18T03:42:42.837Z,11.33
2023-04-18T03:45:12.900Z,11.30
2023-04-18T03:47:41.536Z,11.57
2023-04-18T03:50:10.289Z,11.60
2023-04-18T03:52:40.222Z,12.83
2023-04-18T03:55:09.110Z,10.87
2023-04-18T03:57:39.477Z,11.53
2023-04-18T04:00:12.937Z,12.10
2023-04-18T04:02:44.341Z,12.40
2023-04-18T04:05:19.844Z,12.50
2023-04-18T04:07:48.248Z,10.60
2023-04-18T04:10:16.515Z,11.97
2023-04-18T04:12:46.826Z,11.77
2023-04-18T04:15:15.172Z,13.77
2023-04-18T04:17:51.297Z,12.57
2023-04-18T04:20:24.197Z,13.10
2023-04-18T04:22:58.986Z,13.17
2023-04-18T04:25:28.634Z,12.63
2023-04-18T04:28:02.640Z,11.97
2023-04-18T04:30:34.050Z,12.37
2023-04-18T04:33:03.506Z,12.60
2023-04-18T04:35:32.203Z,12.90
2023-04-18T04:38:01.725Z,12.80
2023-04-18T04:40:39.825Z,13.37
2023-04-18T04:43:15.725Z,12.97
2023-04-18T04:45:51.631Z,12.80
2023-04-18T04:48:24.908Z,13.87
2023-04-18T04:50:55.612Z,12.97
2023-04-18T04:53:24.524Z,13.50
2023-04-18T04:55:53.237Z,13.03
2023-04-18T04:58:22.923Z,12.77
2023-04-18T05:01:18.723Z,12.17
2023-04-18T05:03:47.254Z,12.67
2023-04-18T05:06:20.535Z,13.10
2023-04-18T05:08:48.905Z,12.97
2023-04-18T05:11:17.281Z,12.70
2023-04-18T05:13:46.526Z,13.67
2023-04-18T05:16:15.029Z,12.47
2023-04-18T05:18:43.271Z,11.57
2023-04-18T05:21:11.263Z,12.87
2023-04-18T05:23:39.234Z,11.83
2023-04-18T05:26:07.952Z,12.87
2023-04-18T05:28:35.856Z,12.70
2023-04-18T05:31:05.177Z,12.60
2023-04-18T05:33:33.240Z,12.13
2023-04-18T05:36:02.084Z,12.40
2023-04-18T05:38:30.175Z,12.20
2023-04-18T05:41:00.272Z,12.40
2023-04-18T05:43:29.027Z,12.33
2023-04-18T05:45:58.013Z,11.90
2023-04-18T05:48:27.507Z,11.60
2023-04-18T05:50:55.890Z,12.10
2023-04-18T05:53:24.108Z,12.60
2023-04-18T05:55:52.060Z,10.70
2023-04-18T05:58:19.981Z,11.30
2023-04-18T06:00:48.541Z,12.63
2023-04-18T06:03:16.945Z,12.03
2023-04-18T06:05:46.881Z,12.93
2023-04-18T06:08:14.980Z,12.23
2023-04-18T06:10:43.197Z,11.77
2023-04-18T06:13:11.185Z,13.27
2023-04-18T06:15:39.536Z,12.33
2023-04-18T06:18:07.895Z,11.63
2023-04-18T06:20:36.273Z,13.47
2023-04-18T06:23:05.694Z,13.40
2023-04-18T06:25:33.746Z,12.73
2023-04-18T06:28:01.962Z,12.47
2023-04-18T06:30:30.064Z,13.27
2023-04-18T06:32:58.821Z,12.77
2023-04-18T06:35:26.972Z,12.83
2023-04-18T06:37:55.909Z,12.47
2023-04-18T06:40:25.362Z,12.37
2023-04-18T06:42:53.360Z,13.20
2023-04-18T06:45:21.717Z,13.03
2023-04-18T06:47:51.521Z,12.67
2023-04-18T06:50:20.027Z,12.90
2023-04-18T06:52:48.472Z,13.23
2023-04-18T06:55:18.993Z,13.30
2023-04-18T06:57:48.714Z,13.00
2023-04-18T07:00:17.328Z,12.53
2023-04-18T07:02:45.738Z,11.70
2023-04-18T07:05:15.013Z,12.20
2023-04-18T07:07:46.139Z,11.70
2023-04-18T07:10:14.972Z,12.53
2023-04-18T07:12:45.754Z,11.47
2023-04-18T07:15:17.012Z,11.97
2023-04-18T07:17:45.270Z,12.10
2023-04-18T07:20:14.453Z,12.43
2023-04-18T07:22:42.832Z,12.07
2023-04-18T07:25:10.920Z,11.70
2023-04-18T07:27:39.160Z,13.10
2023-04-18T07:30:08.761Z,12.23
2023-04-18T07:32:41.150Z,11.97
2023-04-18T07:35:10.139Z,11.80
2023-04-18T07:37:38.074Z,12.23
2023-04-18T07:40:08.159Z,12.03
2023-04-18T07:42:36.464Z,12.90
2023-04-18T07:45:05.476Z,12.47
2023-04-18T07:47:34.018Z,12.37
2023-04-18T07:50:04.524Z,11.40
2023-04-18T07:52:32.631Z,11.93
2023-04-18T07:55:00.796Z,12.53
2023-04-18T07:57:28.934Z,12.63
2023-04-18T07:59:57.177Z,12.13
2023-04-18T08:02:26.462Z,11.87
2023-04-18T08:04:56.289Z,11.97
2023-04-18T08:07:30.018Z,12.27
2023-04-18T08:09:58.799Z,12.27
2023-04-18T08:12:27.002Z,12.63
2023-04-18T08:14:55.701Z,13.47
2023-04-18T08:17:24.812Z,13.20
2023-04-18T08:19:52.939Z,12.07
2023-04-18T08:22:20.932Z,12.37
2023-04-18T08:27:25.763Z,13.20
2023-04-18T08:29:53.777Z,12.53
2023-04-18T08:32:22.123Z,12.43
2023-04-18T08:34:51.188Z,12.43
2023-04-18T08:37:20.469Z,12.97
2023-04-18T08:39:49.686Z,13.07
2023-04-18T08:42:21.599Z,12.63
2023-04-18T08:44:51.473Z,12.23
2023-04-18T08:47:21.915Z,12.57
2023-04-18T08:49:52.301Z,12.77
2023-04-18T08:52:24.092Z,12.03
2023-04-18T08:54:52.710Z,12.70
2023-04-18T08:57:26.904Z,13.20
2023-04-18T08:59:56.479Z,12.60
2023-04-18T09:02:39.087Z,11.87
2023-04-18T09:05:13.593Z,12.30
2023-04-18T09:07:42.464Z,12.60
2023-04-18T09:10:13.897Z,12.20
2023-04-18T09:12:49.890Z,11.87
2023-04-18T09:15:22.602Z,12.17
2023-04-18T09:17:54.066Z,11.87
2023-04-18T09:20:37.991Z,11.97
2023-04-18T09:23:10.742Z,12.20
2023-04-18T09:25:46.629Z,12.13
2023-04-18T09:28:28.051Z,11.47
2023-04-18T09:30:57.572Z,12.07
2023-04-18T09:33:29.991Z,12.13
2023-04-18T09:36:01.178Z,12.00
2023-04-18T09:38:44.146Z,11.73
2023-04-18T09:41:13.215Z,11.30
2023-04-18T09:43:42.693Z,11.37
2023-04-18T09:46:10.987Z,11.37
2023-04-18T09:48:39.870Z,11.33
2023-04-18T09:51:11.743Z,11.83
2023-04-18T09:53:41.404Z,10.67
2023-04-18T09:56:13.845Z,10.47
2023-04-18T09:58:48.551Z,10.67
2023-04-18T10:01:17.048Z,10.80
2023-04-18T10:03:48.781Z,9.70
2023-04-18T10:06:18.236Z,9.70
2023-04-18T10:08:46.627Z,9.67
2023-04-18T10:11:15.839Z,9.40
2023-04-18T10:13:49.123Z,9.63
2023-04-18T10:16:18.185Z,8.80
2023-04-18T10:18:46.464Z,8.80
2023-04-18T10:21:15.369Z,9.03
2023-04-18T10:23:43.489Z,8.73
2023-04-18T10:26:12.148Z,8.73
2023-04-18T10:28:54.364Z,8.47
2023-04-18T10:31:23.337Z,8.70
2023-04-18T10:34:03.744Z,8.20
2023-04-18T10:36:33.105Z,9.10
2023-04-18T10:39:22.384Z,8.90
2023-04-18T10:41:51.530Z,8.63
2023-04-18T10:44:24.545Z,8.20
2023-04-18T10:47:24.505Z,8.97
2023-04-18T10:50:06.094Z,8.93
2023-04-18T10:52:35.507Z,8.20
2023-04-18T10:55:16.877Z,9.00
2023-04-18T10:57:46.064Z,8.40
2023-04-18T11:00:18.027Z,8.10
2023-04-18T11:02:51.311Z,9.07
2023-04-18T11:05:25.647Z,8.67
2023-04-18T11:07:56.933Z,8.47
2023-04-18T11:10:26.881Z,8.70
2023-04-18T11:12:56.408Z,8.07
2023-04-18T11:15:29.132Z,8.50
2023-04-18T11:18:02.923Z,7.57
2023-04-18T11:20:43.346Z,7.67
2023-04-18T11:23:25.981Z,7.63
2023-04-18T11:26:03.202Z,7.67
2023-04-18T11:28:48.983Z,6.87
2023-04-18T11:31:41.873Z,7.63
2023-04-18T11:34:11.190Z,7.07
2023-04-18T11:36:39.965Z,7.07
2023-04-18T11:39:08.289Z,6.80
2023-04-18T11:41:36.210Z,6.87
2023-04-18T11:44:07.403Z,7.33
2023-04-18T11:46:40.980Z,7.73
2023-04-18T11:49:09.462Z,8.67
2023-04-18T11:51:38.584Z,8.87
2023-04-18T11:54:06.977Z,9.77
2023-04-18T11:56:36.657Z,8.73
2023-04-18T11:59:10.010Z,8.50
2023-04-18T12:01:37.960Z,8.07
2023-04-18T12:04:09.283Z,8.57
2023-04-18T12:06:47.528Z,7.63
2023-04-18T12:09:16.431Z,8.27
2023-04-18T12:11:45.291Z,7.63
2023-04-18T12:14:21.919Z,7.30
2023-04-18T12:16:50.898Z,7.33
2023-04-18T12:19:32.198Z,7.23
2023-04-18T12:22:18.721Z,7.03
2023-04-18T12:25:11.492Z,7.20
2023-04-18T12:27:50.827Z,6.93
2023-04-18T12:30:22.308Z,6.90
2023-04-18T12:32:55.724Z,6.07
2023-04-18T12:35:35.257Z,6.30
2023-04-18T12:38:12.205Z,6.03
2023-04-18T12:40:47.749Z,5.30
2023-04-18T12:43:29.075Z,5.53
2023-04-18T12:46:24.314Z,4.43
2023-04-18T12:49:13.686Z,4.70
2023-04-18T12:51:43.691Z,3.97
2023-04-18T12:54:12.663Z,4.50
2023-04-18T12:56:42.075Z,5.10
2023-04-18T12:59:15.761Z,4.63
2023-04-18T13:01:45.624Z,4.50
2023-04-18T13:04:15.129Z,4.00
2023-04-18T13:06:47.379Z,3.77
2023-04-18T13:09:16.702Z,3.73
2023-04-18T13:11:45.013Z,4.10
2023-04-18T13:14:13.344Z,3.20
2023-04-18T13:16:43.651Z,4.73
2023-04-18T13:19:12.965Z,3.80
2023-04-18T13:21:41.343Z,3.90
2023-04-18T13:24:10.641Z,3.57
2023-04-18T13:26:39.024Z,3.60
2023-04-18T13:29:06.954Z,3.50
2023-04-18T13:31:36.592Z,3.67
2023-04-18T13:34:04.993Z,3.80
2023-04-18T13:36:34.903Z,3.13
2023-04-18T13:39:05.645Z,3.40
2023-04-18T13:41:35.471Z,3.70
2023-04-18T13:44:03.282Z,3.80
2023-04-18T13:46:32.394Z,3.10
2023-04-18T13:49:04.896Z,3.70
2023-04-18T13:51:33.264Z,3.50
2023-04-18T13:54:02.360Z,3.70
2023-04-18T13:56:30.781Z,3.77
2023-04-18T13:59:00.282Z,3.03
2023-04-18T14:01:28.661Z,3.77
2023-04-18T14:03:57.513Z,3.53
2023-04-18T14:06:28.534Z,3.60
2023-04-18T14:08:59.222Z,3.80
2023-04-18T14:11:27.473Z,3.92
2023-04-18T14:13:55.444Z,3.67
2023-04-18T14:16:28.276Z,3.90
2023-04-18T14:18:56.840Z,3.75
2023-04-18T14:21:25.132Z,4.10
2023-04-18T14:23:56.036Z,3.33
2023-04-18T14:26:24.115Z,3.37
2023-04-18T14:28:52.293Z,4.03
2023-04-18T14:31:21.056Z,3.80
2023-04-18T14:33:50.641Z,3.60
2023-04-18T14:36:18.751Z,3.70
2023-04-18T14:38:48.525Z,3.70
2023-04-18T14:41:16.615Z,3.63
2023-04-18T14:43:45.327Z,3.10
2023-04-18T14:46:14.203Z,3.30
2023-04-18T14:48:42.435Z,3.60
2023-04-18T14:51:12.335Z,2.90
2023-04-18T14:53:40.411Z,3.50
2023-04-18T14:56:08.876Z,3.38
2023-04-18T14:58:37.215Z,3.38
2023-04-18T15:01:05.628Z,3.40
2023-04-18T15:03:34.029Z,3.65
2023-04-18T15:06:02.193Z,3.35
2023-04-18T15:08:32.903Z,4.13
2023-04-18T15:11:01.274Z,3.67
2023-04-18T15:13:29.306Z,3.80
2023-04-18T15:15:57.654Z,4.20
2023-04-18T15:18:25.675Z,4.07
2023-04-18T15:20:53.749Z,3.73
2023-04-18T15:23:21.746Z,4.40
2023-04-18T15:25:51.151Z,4.00
2023-04-18T15:28:20.027Z,4.53
2023-04-18T15:30:47.865Z,4.57
2023-04-18T15:33:17.882Z,4.30
2023-04-18T15:35:45.885Z,5.00
2023-04-18T15:38:13.993Z,4.60
2023-04-18T15:40:43.518Z,4.93
2023-04-18T15:43:14.285Z,4.60
2023-04-18T15:45:44.282Z,4.77
2023-04-18T15:48:13.311Z,4.57
2023-04-18T15:50:41.917Z,4.60
2023-04-18T15:53:10.207Z,5.27
2023-04-18T15:55:38.354Z,5.13
2023-04-18T15:58:06.641Z,4.93
2023-04-18T16:00:35.979Z,4.63
2023-04-18T16:03:04.644Z,5.47
2023-04-18T16:05:32.640Z,4.80
2023-04-18T16:08:02.216Z,4.80
2023-04-18T16:10:30.241Z,4.83
2023-04-18T16:12:59.421Z,4.90
2023-04-18T16:15:27.635Z,5.20
2023-04-18T16:17:57.366Z,5.40
2023-04-18T16:20:27.109Z,5.43
2023-04-18T16:22:55.328Z,5.10
2023-04-18T16:25:23.597Z,5.37
2023-04-18T16:27:51.581Z,5.47
2023-04-18T16:30:19.872Z,5.37
2023-04-18T16:32:47.981Z,5.57
2023-04-18T16:35:17.377Z,5.43
2023-04-18T16:37:45.381Z,5.70
2023-04-18T16:40:14.334Z,5.57
2023-04-18T16:42:42.339Z,4.93
2023-04-18T16:45:10.734Z,5.47
2023-04-18T16:47:38.835Z,5.27
2023-04-18T16:50:08.559Z,5.70
2023-04-18T16:52:38.010Z,5.20
2023-04-18T16:55:07.806Z,5.93
2023-04-18T16:57:35.680Z,5.73
2023-04-18T17:00:04.456Z,5.93
2023-04-18T17:02:33.386Z,5.60
2023-04-18T17:05:01.703Z,5.40
2023-04-18T17:07:30.424Z,4.80
2023-04-18T17:09:59.762Z,6.53
2023-04-18T17:12:27.793Z,6.17
2023-04-18T17:14:55.742Z,6.17
2023-04-18T17:17:24.396Z,5.97
2023-04-18T17:19:52.434Z,5.20
2023-04-18T17:22:20.479Z,4.87
2023-04-18T17:24:51.584Z,4.80
2023-04-18T17:27:21.014Z,5.27
2023-04-18T17:29:49.126Z,4.80
2023-04-18T17:32:19.676Z,4.97
2023-04-18T17:34:47.875Z,5.37
2023-04-18T17:37:17.159Z,4.70
2023-04-18T17:39:45.105Z,5.30
2023-04-18T17:42:13.043Z,4.47
2023-04-18T17:44:42.349Z,5.10
2023-04-18T17:47:10.320Z,5.23
2023-04-18T17:49:38.410Z,5.30
2023-04-18T17:52:07.398Z,5.47
2023-04-18T17:54:35.571Z,5.80
2023-04-18T17:57:07.508Z,5.50
2023-04-18T17:59:51.757Z,6.27
2023-04-18T18:02:23.580Z,6.37
2023-04-18T18:04:53.562Z,6.97
2023-04-18T18:07:21.857Z,6.17
2023-04-18T18:09:50.808Z,6.57
2023-04-18T18:12:19.576Z,6.60
2023-04-18T18:14:48.117Z,7.17
2023-04-18T18:17:16.744Z,6.30
2023-04-18T18:19:46.568Z,7.10
2023-04-18T18:22:14.628Z,6.83
2023-04-18T18:24:42.749Z,7.20
2023-04-18T18:27:10.914Z,6.60
2023-04-18T18:29:39.544Z,7.13
2023-04-18T18:32:08.521Z,7.07
2023-04-18T18:34:38.651Z,7.47
2023-04-18T18:37:18.615Z,7.60
2023-04-18T18:39:53.114Z,7.37
2023-04-18T18:42:42.036Z,7.20
2023-04-18T18:45:11.353Z,7.60
2023-04-18T18:47:40.205Z,7.63
2023-04-18T18:50:09.053Z,7.50
2023-04-18T18:52:40.781Z,7.00
2023-04-18T18:55:09.814Z,6.90
2023-04-18T18:57:38.300Z,7.30
2023-04-18T19:00:09.593Z,7.57
2023-04-18T19:02:38.119Z,7.40
2023-04-18T19:05:07.779Z,7.33
2023-04-18T19:07:42.329Z,7.57
2023-04-18T19:10:11.614Z,7.90
2023-04-18T19:12:40.928Z,7.87
2023-04-18T19:15:10.413Z,8.27
2023-04-18T19:17:38.908Z,8.43
2023-04-18T19:20:09.127Z,8.47
2023-04-18T19:22:42.270Z,8.00
2023-04-18T19:25:11.135Z,7.80
2023-04-18T19:27:39.388Z,7.77
2023-04-18T19:30:09.464Z,7.77
2023-04-18T19:32:37.727Z,7.90
2023-04-18T19:35:07.188Z,8.27
2023-04-18T19:37:43.991Z,7.77
2023-04-18T19:40:14.882Z,8.10
2023-04-18T19:42:43.189Z,8.77
2023-04-18T19:45:15.196Z,8.30
2023-04-18T19:47:44.428Z,7.60
2023-04-18T19:50:12.968Z,7.60
2023-04-18T19:52:42.936Z,7.63
2023-04-18T19:55:11.607Z,8.60
2023-04-18T19:57:41.522Z,7.80
2023-04-18T20:00:12.721Z,7.63
2023-04-18T20:02:41.892Z,8.37
2023-04-18T20:05:11.020Z,9.07
2023-04-18T20:07:39.590Z,8.87
2023-04-18T20:10:10.812Z,9.00
2023-04-18T20:12:39.097Z,8.37
2023-04-18T20:15:08.245Z,9.03
2023-04-18T20:17:36.653Z,8.70
2023-04-18T20:20:08.049Z,8.97
2023-04-18T20:22:37.191Z,8.50
2023-04-18T20:25:06.278Z,8.80
2023-04-18T20:27:35.896Z,8.67
2023-04-18T20:30:04.556Z,8.70
2023-04-18T20:32:33.556Z,9.30
2023-04-18T20:35:02.756Z,8.73
2023-04-18T20:37:31.030Z,8.73
2023-04-18T20:39:59.151Z,8.17
2023-04-18T20:42:27.505Z,8.70
2023-04-18T20:44:58.815Z,8.87
2023-04-18T20:47:27.715Z,8.50
2023-04-18T20:49:56.656Z,8.80
2023-04-18T20:52:24.870Z,9.07
2023-04-18T20:54:52.971Z,9.57
2023-04-18T20:57:21.573Z,8.07
2023-04-18T20:59:49.654Z,8.97
2023-04-18T21:02:19.172Z,9.10
2023-04-18T21:04:47.828Z,9.30
2023-04-18T21:07:16.536Z,8.00
2023-04-18T21:09:45.011Z,8.53
2023-04-18T21:12:13.014Z,8.33
2023-04-18T21:14:41.315Z,9.57
2023-04-18T21:17:10.549Z,8.83
2023-04-18T21:19:42.647Z,9.10
2023-04-18T21:22:11.724Z,9.03
2023-04-18T21:24:40.472Z,8.33
2023-04-18T21:27:09.045Z,8.10
2023-04-18T21:29:37.416Z,8.50
2023-04-18T21:32:06.041Z,9.03
2023-04-18T21:34:34.569Z,8.83
2023-04-18T21:37:04.506Z,8.37
2023-04-18T21:39:32.671Z,8.63
2023-04-18T21:42:03.554Z,9.07
2023-04-18T21:44:32.092Z,9.20
2023-04-18T21:47:00.521Z,8.90
2023-04-18T21:49:29.158Z,9.20
2023-04-18T21:51:57.661Z,9.50
2023-04-18T21:54:27.485Z,9.77
2023-04-18T21:56:55.882Z,9.10
2023-04-18T21:59:24.328Z,8.47
2023-04-18T22:01:52.436Z,8.50
2023-04-18T22:04:26.331Z,9.30
2023-04-18T22:06:55.543Z,9.53
2023-04-18T22:09:23.655Z,9.23
2023-04-18T22:11:56.625Z,9.30
2023-04-18T22:14:26.081Z,8.80
2023-04-18T22:16:54.817Z,9.93
2023-04-18T22:19:24.877Z,8.77
2023-04-18T22:21:53.436Z,8.80
2023-04-18T22:24:22.029Z,9.33
2023-04-18T22:26:50.266Z,9.00
2023-04-18T22:29:20.088Z,8.33
2023-04-18T22:31:48.268Z,8.67
2023-04-18T22:34:16.880Z,9.23
2023-04-18T22:36:45.683Z,9.20
2023-04-18T22:39:14.082Z,9.43
2023-04-18T22:41:44.454Z,9.33
2023-04-18T22:44:16.336Z,9.23
2023-04-18T22:46:48.145Z,9.03
2023-04-18T22:49:18.062Z,9.43
2023-04-18T22:51:46.693Z,9.27
2023-04-18T22:54:15.074Z,9.47
2023-04-18T22:56:43.631Z,9.27
2023-04-18T22:59:11.881Z,9.63
2023-04-18T23:01:40.749Z,9.90
2023-04-18T23:04:10.408Z,10.10
2023-04-18T23:06:38.877Z,10.10
2023-04-18T23:09:08.314Z,10.60
2023-04-18T23:11:36.690Z,10.20
2023-04-18T23:14:04.707Z,9.60
2023-04-18T23:16:33.071Z,10.07
2023-04-18T23:19:01.374Z,10.97
2023-04-18T23:21:33.777Z,11.27
2023-04-18T23:24:02.043Z,10.50
2023-04-18T23:26:30.068Z,10.60
2023-04-18T23:28:58.270Z,9.90
2023-04-18T23:31:26.758Z,10.20
2023-04-18T23:33:55.109Z,11.03
2023-04-18T23:36:23.619Z,9.97
2023-04-18T23:38:53.490Z,10.30
2023-04-18T23:41:22.222Z,11.37
2023-04-18T23:43:50.339Z,10.83
2023-04-18T23:46:19.061Z,11.03
2023-04-18T23:48:47.051Z,10.77
2023-04-18T23:51:15.472Z,11.23
2023-04-18T23:53:43.900Z,11.07
2023-04-18T23:56:13.502Z,11.17
2023-04-18T23:58:42.133Z,11.90
